createdAt,value
2019-06-15T00:02:20.421Z,5.50
2019-06-15T00:04:48.857Z,4.90
2019-06-15T00:07:17.269Z,4.73
2019-06-15T00:09:45.772Z,4.70
2019-06-15T00:12:14.189Z,5.10
2019-06-15T00:14:42.646Z,5.60
2019-06-15T00:17:11.047Z,7.00
2019-06-15T00:19:39.489Z,6.60
2019-06-15T00:22:07.937Z,5.53
2019-06-15T00:24:36.374Z,5.15
2019-06-15T00:27:04.999Z,6.50
2019-06-15T00:29:33.402Z,5.80
2019-06-15T00:32:01.864Z,4.93
2019-06-15T00:34:30.265Z,5.20
2019-06-15T00:36:58.676Z,6.00
2019-06-15T00:39:27.127Z,6.10
2019-06-15T00:41:55.572Z,5.70
2019-06-15T00:44:24.011Z,6.07
2019-06-15T00:46:52.457Z,5.97
2019-06-15T00:49:20.896Z,7.13
2019-06-15T00:51:49.313Z,6.33
2019-06-15T00:54:17.767Z,6.67
2019-06-15T00:56:46.175Z,6.40
2019-06-15T00:59:14.618Z,6.37
2019-06-15T01:01:43.045Z,7.07
2019-06-15T01:04:11.522Z,5.97
2019-06-15T01:06:39.922Z,6.97
2019-06-15T01:09:08.466Z,7.17
2019-06-15T01:11:36.959Z,7.20
2019-06-15T01:14:05.901Z,7.80
2019-06-15T01:16:34.314Z,7.47
2019-06-15T01:19:02.737Z,7.40
2019-06-15T01:21:31.259Z,8.00
2019-06-15T01:23:59.669Z,7.13
2019-06-15T01:26:28.086Z,7.03
2019-06-15T01:28:56.535Z,7.43
2019-06-15T01:31:25.002Z,6.80
2019-06-15T01:33:53.480Z,6.87
2019-06-15T01:36:21.928Z,6.90
2019-06-15T01:38:50.406Z,7.40
2019-06-15T01:41:18.877Z,7.03
2019-06-15T01:43:47.301Z,7.20
2019-06-15T01:46:15.741Z,7.77
2019-06-15T01:48:44.153Z,6.47
2019-06-15T01:51:12.597Z,6.90
2019-06-15T01:53:41.011Z,6.97
2019-06-15T01:56:09.463Z,7.13
2019-06-15T01:58:37.874Z,7.00
2019-06-15T02:01:06.549Z,6.73
2019-06-15T02:03:36.520Z,5.43
2019-06-15T02:06:05.266Z,7.77
2019-06-15T02:08:33.715Z,7.03
2019-06-15T02:11:02.157Z,5.37
2019-06-15T02:13:30.616Z,5.77
2019-06-15T02:16:01.952Z,4.77
2019-06-15T02:18:29.218Z,5.67
2019-06-15T02:20:57.653Z,5.43
2019-06-15T02:23:26.110Z,5.70
2019-06-15T02:25:54.521Z,6.17
2019-06-15T02:28:23.018Z,5.20
2019-06-15T02:30:51.502Z,6.07
2019-06-15T02:33:19.960Z,6.23
2019-06-15T02:35:48.362Z,8.07
2019-06-15T02:38:16.793Z,6.50
2019-06-15T02:40:45.200Z,7.30
2019-06-15T02:43:13.645Z,7.27
2019-06-15T02:45:42.060Z,6.20
2019-06-15T02:48:10.512Z,7.00
2019-06-15T02:50:39.099Z,6.20
2019-06-15T02:53:07.533Z,7.80
2019-06-15T02:55:49.718Z,7.20
2019-06-15T02:58:06.180Z,7.33
2019-06-15T03:00:46.712Z,6.60
2019-06-15T03:03:15.329Z,22.13
2019-06-15T03:05:47.222Z,13.40
2019-06-15T03:08:16.527Z,9.63
2019-06-15T03:10:45.416Z,10.13
2019-06-15T03:13:14.406Z,8.87
2019-06-15T03:15:42.830Z,7.20
2019-06-15T03:18:11.583Z,7.70
2019-06-15T03:20:40.013Z,7.60
2019-06-15T03:23:08.439Z,7.73
2019-06-15T03:25:36.875Z,8.93
2019-06-15T03:28:05.546Z,8.47
2019-06-15T03:30:33.966Z,8.70
2019-06-15T03:33:02.486Z,8.10
2019-06-15T03:35:31.034Z,8.50
2019-06-15T03:37:59.474Z,8.10
2019-06-15T03:40:27.902Z,7.90
2019-06-15T03:42:56.325Z,7.17
2019-06-15T03:45:24.825Z,8.63
2019-06-15T03:47:53.253Z,8.70
2019-06-15T03:50:21.831Z,7.50
2019-06-15T03:52:50.333Z,8.30
2019-06-15T03:55:40.549Z,8.60
2019-06-15T03:58:09.053Z,9.07
2019-06-15T04:00:46.176Z,8.10
2019-06-15T04:03:15.225Z,7.90
2019-06-15T04:05:43.937Z,8.33
2019-06-15T04:08:12.498Z,8.77
2019-06-15T04:10:41.132Z,8.77
2019-06-15T04:13:09.532Z,8.00
2019-06-15T04:15:38.111Z,6.93
2019-06-15T04:18:06.643Z,6.93
2019-06-15T04:20:35.063Z,7.53
2019-06-15T04:23:03.751Z,6.93
2019-06-15T04:25:32.198Z,6.70
2019-06-15T04:28:00.711Z,6.50
2019-06-15T04:30:29.177Z,12.80
2019-06-15T04:32:57.803Z,8.40
2019-06-15T04:35:26.233Z,6.63
2019-06-15T04:37:54.654Z,6.67
2019-06-15T04:40:23.124Z,6.93
2019-06-15T04:42:51.517Z,6.77
2019-06-15T04:45:20.323Z,6.07
2019-06-15T04:47:48.771Z,6.13
2019-06-15T04:50:17.186Z,6.73
2019-06-15T04:52:45.625Z,6.40
2019-06-15T04:55:14.133Z,7.43
2019-06-15T04:57:42.631Z,6.13
2019-06-15T05:00:11.357Z,6.20
2019-06-15T05:02:40.349Z,6.40
2019-06-15T05:05:09.749Z,5.70
2019-06-15T05:07:38.189Z,8.30
2019-06-15T05:10:07.065Z,7.07
2019-06-15T05:12:35.727Z,7.77
2019-06-15T05:15:05.661Z,11.77
2019-06-15T05:17:34.347Z,8.20
2019-06-15T05:20:03.284Z,7.80
2019-06-15T05:22:31.881Z,10.33
2019-06-15T05:25:00.314Z,6.20
2019-06-15T05:27:28.725Z,7.57
2019-06-15T05:29:57.171Z,7.17
2019-06-15T05:32:26.035Z,6.40
2019-06-15T05:34:54.531Z,6.07
2019-06-15T05:37:24.021Z,6.90
2019-06-15T05:39:52.431Z,7.43
2019-06-15T05:42:20.871Z,5.80
2019-06-15T05:44:49.281Z,6.23
2019-06-15T05:47:17.731Z,7.30
2019-06-15T05:49:46.133Z,8.73
2019-06-15T05:52:14.562Z,8.00
2019-06-15T05:54:42.976Z,6.93
2019-06-15T05:57:21.326Z,7.30
2019-06-15T05:59:41.562Z,8.40
2019-06-15T06:02:09.996Z,8.13
2019-06-15T06:04:38.431Z,8.30
2019-06-15T06:07:06.983Z,7.33
2019-06-15T06:09:35.509Z,7.40
2019-06-15T06:12:04.082Z,8.47
2019-06-15T06:14:32.480Z,6.97
2019-06-15T06:17:01.005Z,7.93
2019-06-15T06:19:29.437Z,9.13
2019-06-15T06:21:58.410Z,8.60
2019-06-15T06:24:26.979Z,7.90
2019-06-15T06:26:55.419Z,7.97
2019-06-15T06:29:23.925Z,7.13
2019-06-15T06:31:53.004Z,6.60
2019-06-15T06:34:21.475Z,8.27
2019-06-15T06:36:49.960Z,6.67
2019-06-15T06:39:18.428Z,5.63
2019-06-15T06:41:46.981Z,6.30
2019-06-15T06:44:15.408Z,5.13
2019-06-15T06:46:43.868Z,5.90
2019-06-15T06:49:12.493Z,5.60
2019-06-15T06:51:40.921Z,5.27
2019-06-15T06:54:09.559Z,4.87
2019-06-15T06:56:48.561Z,5.27
2019-06-15T06:59:17.188Z,4.57
2019-06-15T07:01:45.614Z,5.27
2019-06-15T07:04:14.063Z,4.60
2019-06-15T07:06:42.576Z,5.47
2019-06-15T07:09:11.228Z,4.10
2019-06-15T07:11:39.674Z,4.03
2019-06-15T07:14:08.201Z,4.43
2019-06-15T07:16:36.693Z,3.77
2019-06-15T07:19:05.114Z,3.40
2019-06-15T07:21:33.585Z,3.70
2019-06-15T07:24:02.122Z,3.80
2019-06-15T07:26:30.579Z,3.73
2019-06-15T07:28:59.033Z,3.90
2019-06-15T07:31:27.501Z,2.83
2019-06-15T07:33:55.956Z,3.97
2019-06-15T07:36:24.406Z,2.67
2019-06-15T07:38:52.869Z,3.60
2019-06-15T07:41:21.373Z,3.23
2019-06-15T07:43:49.794Z,6.23
2019-06-15T07:46:18.252Z,4.07
2019-06-15T07:48:46.669Z,3.17
2019-06-15T07:51:15.201Z,2.63
2019-06-15T07:53:43.616Z,3.03
2019-06-15T07:56:12.142Z,3.30
2019-06-15T07:58:40.724Z,3.20
2019-06-15T08:01:09.194Z,3.60
2019-06-15T08:03:37.635Z,3.13
2019-06-15T08:06:06.086Z,2.83
2019-06-15T08:08:34.546Z,2.27
2019-06-15T08:11:02.966Z,2.30
2019-06-15T08:13:31.407Z,1.77
2019-06-15T08:16:00.011Z,1.77
2019-06-15T08:18:28.477Z,2.00
2019-06-15T08:20:57.160Z,7.50
2019-06-15T08:23:25.829Z,1.90
2019-06-15T08:25:54.334Z,2.00
2019-06-15T08:28:23.085Z,1.77
2019-06-15T08:30:51.579Z,2.10
2019-06-15T08:33:20.239Z,1.30
2019-06-15T08:35:48.745Z,1.70
2019-06-15T08:38:17.262Z,1.07
2019-06-15T08:40:45.685Z,1.15
2019-06-15T08:43:14.168Z,1.57
2019-06-15T08:45:42.657Z,1.00
2019-06-15T08:48:11.366Z,1.22
2019-06-15T08:50:40.171Z,0.80
2019-06-15T08:53:08.612Z,0.95
2019-06-15T08:55:37.094Z,0.98
2019-06-15T08:58:05.548Z,0.88
2019-06-15T09:00:34.101Z,1.05
2019-06-15T09:03:02.889Z,1.70
2019-06-15T09:05:31.612Z,1.30
2019-06-15T09:08:00.422Z,0.90
2019-06-15T09:10:28.944Z,1.00
2019-06-15T09:12:57.363Z,1.10
2019-06-15T09:15:32.705Z,1.00
2019-06-15T09:18:01.130Z,1.00
2019-06-15T09:20:29.580Z,1.27
2019-06-15T09:22:58.052Z,1.62
2019-06-15T09:25:26.513Z,1.82
2019-06-15T09:27:55.012Z,1.02
2019-06-15T09:30:23.514Z,1.27
2019-06-15T09:32:51.995Z,1.17
2019-06-15T09:35:20.436Z,1.42
2019-06-15T09:37:49.010Z,1.32
2019-06-15T09:40:18.205Z,1.30
2019-06-15T09:42:46.626Z,1.35
2019-06-15T09:45:15.792Z,1.12
2019-06-15T09:47:44.254Z,1.07
2019-06-15T09:50:12.965Z,1.02
2019-06-15T09:52:41.381Z,1.20
2019-06-15T09:55:10.092Z,2.05
2019-06-15T09:57:38.524Z,1.27
2019-06-15T10:00:09.130Z,1.20
2019-06-15T10:02:38.211Z,1.30
2019-06-15T10:05:07.703Z,1.60
2019-06-15T10:07:36.244Z,1.02
2019-06-15T10:10:09.307Z,1.72
2019-06-15T10:12:37.754Z,1.70
2019-06-15T10:15:09.295Z,1.57
2019-06-15T10:17:37.780Z,2.87
2019-06-15T10:20:08.108Z,1.80
2019-06-15T10:22:36.589Z,2.00
2019-06-15T10:25:06.680Z,1.40
2019-06-15T10:27:35.370Z,2.10
2019-06-15T10:30:09.050Z,2.37
2019-06-15T10:32:37.512Z,1.67
2019-06-15T10:35:06.411Z,1.90
2019-06-15T10:37:34.902Z,1.70
2019-06-15T10:40:06.092Z,2.50
2019-06-15T10:42:40.672Z,1.63
2019-06-15T10:45:13.680Z,1.60
2019-06-15T10:47:46.251Z,1.50
2019-06-15T10:50:19.597Z,1.23
2019-06-15T10:52:52.628Z,1.33
2019-06-15T10:55:19.756Z,1.43
2019-06-15T10:57:49.379Z,1.70
2019-06-15T11:00:22.922Z,1.67
2019-06-15T11:02:56.753Z,1.50
2019-06-15T11:05:29.789Z,1.40
2019-06-15T11:08:02.847Z,1.40
2019-06-15T11:10:42.971Z,1.90
2019-06-15T11:13:13.383Z,1.40
2019-06-15T11:15:45.254Z,1.55
2019-06-15T11:18:13.682Z,1.80
2019-06-15T11:20:42.167Z,1.70
2019-06-15T11:23:10.754Z,3.60
2019-06-15T11:25:39.242Z,2.07
2019-06-15T11:28:07.673Z,2.67
2019-06-15T11:30:36.793Z,2.60
2019-06-15T11:33:05.337Z,2.50
2019-06-15T11:35:33.975Z,1.77
2019-06-15T11:38:02.511Z,2.90
2019-06-15T11:40:31.006Z,1.90
2019-06-15T11:42:59.414Z,1.97
2019-06-15T11:45:27.851Z,3.20
2019-06-15T11:47:56.267Z,2.50
2019-06-15T11:50:24.810Z,2.10
2019-06-15T11:52:53.287Z,1.90
2019-06-15T11:55:21.776Z,2.40
2019-06-15T11:57:50.289Z,2.07
2019-06-15T12:00:31.251Z,2.20
2019-06-15T12:02:52.153Z,2.23
2019-06-15T12:05:20.650Z,2.10
2019-06-15T12:07:49.108Z,2.00
2019-06-15T12:10:17.655Z,2.40
2019-06-15T12:12:46.082Z,2.47
2019-06-15T12:15:14.836Z,2.70
2019-06-15T12:17:43.279Z,6.27
2019-06-15T12:20:11.866Z,2.70
2019-06-15T12:22:43.592Z,2.33
2019-06-15T12:25:12.073Z,2.47
2019-06-15T12:27:40.525Z,2.37
2019-06-15T12:30:11.621Z,2.83
2019-06-15T12:32:40.123Z,2.53
2019-06-15T12:35:11.770Z,2.90
2019-06-15T12:37:40.409Z,2.40
2019-06-15T12:40:08.991Z,2.60
2019-06-15T12:42:37.477Z,2.27
2019-06-15T12:45:06.157Z,2.87
2019-06-15T12:47:34.980Z,7.60
2019-06-15T12:50:05.490Z,4.70
2019-06-15T12:52:33.934Z,2.93
2019-06-15T12:55:02.408Z,2.77
2019-06-15T12:57:30.853Z,3.10
2019-06-15T12:59:59.302Z,3.20
2019-06-15T13:02:27.906Z,2.73
2019-06-15T13:04:56.393Z,2.53
2019-06-15T13:07:24.900Z,3.10
2019-06-15T13:09:53.334Z,2.90
2019-06-15T13:12:21.747Z,3.27
2019-06-15T13:14:51.091Z,3.20
2019-06-15T13:17:19.588Z,3.50
2019-06-15T13:19:48.170Z,3.20
2019-06-15T13:22:16.635Z,3.37
2019-06-15T13:24:46.753Z,3.43
2019-06-15T13:27:15.233Z,7.70
2019-06-15T13:29:46.485Z,4.83
2019-06-15T13:32:15.187Z,3.03
2019-06-15T13:34:43.701Z,2.50
2019-06-15T13:37:12.189Z,2.57
2019-06-15T13:39:40.646Z,3.20
2019-06-15T13:42:09.785Z,2.90
2019-06-15T13:44:38.291Z,3.00
2019-06-15T13:47:06.699Z,2.87
2019-06-15T13:49:35.167Z,3.30
2019-06-15T13:52:03.565Z,3.17
2019-06-15T13:54:32.053Z,2.47
2019-06-15T13:57:00.464Z,3.20
2019-06-15T13:59:28.947Z,4.23
2019-06-15T14:01:57.406Z,6.13
2019-06-15T14:04:26.002Z,4.83
2019-06-15T14:06:54.443Z,3.00
2019-06-15T14:09:22.987Z,3.50
2019-06-15T14:11:51.436Z,2.83
2019-06-15T14:14:19.993Z,3.40
2019-06-15T14:16:48.492Z,2.90
2019-06-15T14:19:16.935Z,3.20
2019-06-15T14:21:45.375Z,3.33
2019-06-15T14:24:13.804Z,3.27
2019-06-15T14:26:42.256Z,2.97
2019-06-15T14:29:10.710Z,2.80
2019-06-15T14:31:49.792Z,6.20
2019-06-15T14:34:09.364Z,4.90
2019-06-15T14:36:37.778Z,2.60
2019-06-15T14:39:07.163Z,3.40
2019-06-15T14:41:35.580Z,3.17
2019-06-15T14:44:04.148Z,3.13
2019-06-15T14:46:32.668Z,3.40
2019-06-15T14:49:01.092Z,3.17
2019-06-15T14:51:29.691Z,3.40
2019-06-15T14:53:59.120Z,4.00
2019-06-15T14:56:27.916Z,3.13
2019-06-15T14:58:56.452Z,3.67
2019-06-15T15:01:26.103Z,3.10
2019-06-15T15:03:57.114Z,3.33
2019-06-15T15:06:26.072Z,3.43
2019-06-15T15:08:56.243Z,3.17
2019-06-15T15:11:26.477Z,3.73
2019-06-15T15:13:56.211Z,3.47
2019-06-15T15:16:24.854Z,3.60
2019-06-15T15:18:53.350Z,4.43
2019-06-15T15:21:21.823Z,4.00
2019-06-15T15:23:50.235Z,3.57
2019-06-15T15:26:18.803Z,2.90
2019-06-15T15:28:47.490Z,3.07
2019-06-15T15:31:17.225Z,3.00
2019-06-15T15:33:47.707Z,4.27
2019-06-15T15:36:16.857Z,3.77
2019-06-15T15:38:46.846Z,2.53
2019-06-15T15:41:18.717Z,3.30
2019-06-15T15:43:47.167Z,2.60
2019-06-15T15:46:16.521Z,2.60
2019-06-15T15:48:48.262Z,2.93
2019-06-15T15:51:17.193Z,2.83
2019-06-15T15:53:46.652Z,5.87
2019-06-15T15:56:20.261Z,3.00
2019-06-15T15:58:48.688Z,2.90
2019-06-15T16:01:18.822Z,3.30
2019-06-15T16:03:47.670Z,3.53
2019-06-15T16:06:16.385Z,3.20
2019-06-15T16:08:47.078Z,3.13
2019-06-15T16:11:16.446Z,3.90
2019-06-15T16:13:46.309Z,3.17
2019-06-15T16:16:16.489Z,2.93
2019-06-15T16:18:46.950Z,3.03
2019-06-15T16:21:18.280Z,2.87
2019-06-15T16:23:47.294Z,2.60
2019-06-15T16:26:16.930Z,2.53
2019-06-15T16:28:46.197Z,2.90
2019-06-15T16:31:17.760Z,6.30
2019-06-15T16:33:46.490Z,4.17
2019-06-15T16:36:15.333Z,2.77
2019-06-15T16:38:46.801Z,3.40
2019-06-15T16:41:14.248Z,3.10
2019-06-15T16:43:42.727Z,2.80
2019-06-15T16:46:11.580Z,2.77
2019-06-15T16:48:40.046Z,3.23
2019-06-15T16:51:08.490Z,3.20
2019-06-15T16:53:37.349Z,3.30
2019-06-15T16:56:09.154Z,3.50
2019-06-15T16:58:37.554Z,3.10
2019-06-15T17:01:06.776Z,3.13
2019-06-15T17:03:36.741Z,2.80
2019-06-15T17:06:08.620Z,2.80
2019-06-15T17:08:37.142Z,3.03
2019-06-15T17:11:06.784Z,3.17
2019-06-15T17:13:36.943Z,2.50
2019-06-15T17:16:06.088Z,2.83
2019-06-15T17:18:36.548Z,3.03
2019-06-15T17:21:07.118Z,2.63
2019-06-15T17:23:39.957Z,3.47
2019-06-15T17:26:08.399Z,3.73
2019-06-15T17:28:37.156Z,2.80
2019-06-15T17:31:06.126Z,2.57
2019-06-15T17:33:38.234Z,2.60
2019-06-15T17:36:06.843Z,2.90
2019-06-15T17:38:36.918Z,3.00
2019-06-15T17:41:05.569Z,2.70
2019-06-15T17:43:36.324Z,3.50
2019-06-15T17:46:06.978Z,2.80
2019-06-15T17:48:36.923Z,3.40
2019-06-15T17:51:06.659Z,3.00
2019-06-15T17:53:36.723Z,3.37
2019-06-15T17:56:07.351Z,3.00
2019-06-15T17:58:36.956Z,3.77
2019-06-15T18:01:06.509Z,3.40
2019-06-15T18:03:49.771Z,3.50
2019-06-15T18:06:07.504Z,3.37
2019-06-15T18:08:37.104Z,2.90
2019-06-15T18:11:06.827Z,3.00
2019-06-15T18:13:37.194Z,3.20
2019-06-15T18:16:06.574Z,2.87
2019-06-15T18:18:37.160Z,3.30
2019-06-15T18:21:06.590Z,2.40
2019-06-15T18:23:36.915Z,2.53
2019-06-15T18:26:07.162Z,2.77
2019-06-15T18:28:36.258Z,5.30
2019-06-15T18:31:06.556Z,5.30
2019-06-15T18:33:36.568Z,3.97
2019-06-15T18:36:06.298Z,4.67
2019-06-15T18:38:37.220Z,3.60
2019-06-15T18:41:07.297Z,4.27
2019-06-15T18:43:36.592Z,4.10
2019-06-15T18:46:07.122Z,3.23
2019-06-15T18:48:36.133Z,3.47
2019-06-15T18:51:07.376Z,3.30
2019-06-15T18:53:38.620Z,3.30
2019-06-15T18:56:06.982Z,3.53
2019-06-15T18:58:37.692Z,4.80
2019-06-15T19:01:06.934Z,3.43
2019-06-15T19:03:37.645Z,3.80
2019-06-15T19:06:10.748Z,4.30
2019-06-15T19:08:36.401Z,3.37
2019-06-15T19:11:06.997Z,4.37
2019-06-15T19:13:36.014Z,3.30
2019-06-15T19:16:07.020Z,4.10
2019-06-15T19:18:56.551Z,3.30
2019-06-15T19:21:26.060Z,3.90
2019-06-15T19:23:56.457Z,4.10
2019-06-15T19:26:26.859Z,4.00
2019-06-15T19:28:55.951Z,4.83
2019-06-15T19:31:24.558Z,3.77
2019-06-15T19:33:52.982Z,4.40
2019-06-15T19:36:21.516Z,4.10
2019-06-15T19:38:49.946Z,4.30
2019-06-15T19:41:18.412Z,3.87
2019-06-15T19:43:46.915Z,4.13
2019-06-15T19:46:17.064Z,3.80
2019-06-15T19:48:45.876Z,4.60
2019-06-15T19:51:14.462Z,4.40
2019-06-15T19:53:42.973Z,4.10
2019-06-15T19:56:11.401Z,3.60
2019-06-15T19:58:39.819Z,4.60
2019-06-15T20:01:09.017Z,4.40
2019-06-15T20:03:37.444Z,4.73
2019-06-15T20:06:06.511Z,3.73
2019-06-15T20:08:36.188Z,4.30
2019-06-15T20:11:07.310Z,4.30
2019-06-15T20:13:37.154Z,4.90
2019-06-15T20:16:07.807Z,3.97
2019-06-15T20:18:37.515Z,3.97
2019-06-15T20:21:07.243Z,4.60
2019-06-15T20:23:37.072Z,3.90
2019-06-15T20:26:06.637Z,4.30
2019-06-15T20:28:35.404Z,4.57
2019-06-15T20:31:06.220Z,4.57
2019-06-15T20:33:36.721Z,4.90
2019-06-15T20:36:06.677Z,4.43
2019-06-15T20:38:36.283Z,4.60
2019-06-15T20:41:07.271Z,4.40
2019-06-15T20:43:36.834Z,4.87
2019-06-15T20:46:07.053Z,4.30
2019-06-15T20:48:36.254Z,4.60
2019-06-15T20:51:09.911Z,4.67
2019-06-15T20:53:36.689Z,5.17
2019-06-15T20:56:06.620Z,4.23
2019-06-15T20:58:37.243Z,4.93
2019-06-15T21:01:07.055Z,5.73
2019-06-15T21:03:36.673Z,5.67
2019-06-15T21:06:06.817Z,6.20
2019-06-15T21:08:36.341Z,5.70
2019-06-15T21:11:07.033Z,5.37
2019-06-15T21:13:37.477Z,4.50
2019-06-15T21:16:06.668Z,5.40
2019-06-15T21:18:37.112Z,5.10
2019-06-15T21:21:06.860Z,4.40
2019-06-15T21:23:37.233Z,5.27
2019-06-15T21:26:06.846Z,6.60
2019-06-15T21:28:36.883Z,4.50
2019-06-15T21:31:06.399Z,3.93
2019-06-15T21:33:36.064Z,4.40
2019-06-15T21:36:06.254Z,4.20
2019-06-15T21:38:36.083Z,3.77
2019-06-15T21:41:07.510Z,3.60
2019-06-15T21:43:36.349Z,3.20
2019-06-15T21:46:06.341Z,4.03
2019-06-15T21:48:36.556Z,3.63
2019-06-15T21:51:07.751Z,3.53
2019-06-15T21:53:38.346Z,3.57
2019-06-15T21:56:07.310Z,4.30
2019-06-15T21:58:36.719Z,3.57
2019-06-15T22:01:20.771Z,4.07
2019-06-15T22:03:49.259Z,4.73
2019-06-15T22:06:18.231Z,9.17
2019-06-15T22:08:46.708Z,8.40
2019-06-15T22:11:15.990Z,5.03
2019-06-15T22:13:46.405Z,4.60
2019-06-15T22:16:16.956Z,4.53
2019-06-15T22:18:47.232Z,4.53
2019-06-15T22:21:16.183Z,4.90
2019-06-15T22:23:47.087Z,3.70
2019-06-15T22:26:17.141Z,5.27
2019-06-15T22:28:47.057Z,3.80
2019-06-15T22:31:17.136Z,4.87
2019-06-15T22:33:47.277Z,4.90
2019-06-15T22:36:24.937Z,4.17
2019-06-15T22:38:46.291Z,4.60
2019-06-15T22:41:16.731Z,4.90
2019-06-15T22:43:46.253Z,4.80
2019-06-15T22:46:16.673Z,4.63
2019-06-15T22:48:47.111Z,5.53
2019-06-15T22:51:16.823Z,5.00
2019-06-15T22:53:47.214Z,3.93
2019-06-15T22:56:17.143Z,4.37
2019-06-15T22:58:46.208Z,4.70
2019-06-15T23:01:16.835Z,5.00
2019-06-15T23:03:46.545Z,5.07
2019-06-15T23:06:16.119Z,3.70
2019-06-15T23:08:46.997Z,4.77
2019-06-15T23:11:17.189Z,4.40
2019-06-15T23:13:46.324Z,11.17
2019-06-15T23:16:14.989Z,11.83
2019-06-15T23:18:43.429Z,4.73
2019-06-15T23:21:11.908Z,5.90
2019-06-15T23:23:40.331Z,5.77
2019-06-15T23:26:08.840Z,5.90
2019-06-15T23:28:37.359Z,4.50
2019-06-15T23:31:07.530Z,4.70
2019-06-15T23:33:36.077Z,4.77
2019-06-15T23:36:09.049Z,4.37
2019-06-15T23:38:37.869Z,4.53
2019-06-15T23:41:07.052Z,5.10
2019-06-15T23:43:36.225Z,4.97
2019-06-15T23:46:06.670Z,4.43
2019-06-15T23:48:36.360Z,4.40
2019-06-15T23:51:06.209Z,5.00
2019-06-15T23:53:36.849Z,4.53
2019-06-15T23:56:06.308Z,4.43
2019-06-15T23:58:37.119Z,5.57
